Terminal Aerodrome Forecast
Issued by NWS

Home | Current Version | Previous Version | Text Only | Print | Product List | Glossary On
Versions: 1 2 3 4 5 6 7 8 9 10 11 12 13 14 15 16 17 18 19 20
000
FTUS44 KLZK 291120
TAFPBF
TAF
KPBF 291120Z 2912/3012 01008KT P6SM OVC010
      TEMPO 2912/2914 4SM BR
     FM291500 07004KT P6SM OVC100
     FM291700 04005KT P6SM BKN250
     FM300000 03004KT P6SM BKN250=

USA.gov is the U.S. government's official web portal to all federal, state and local government web resources and services.